createdAt,value
2024-05-09T00:00:15.596Z,95745.00
2024-05-09T00:01:11.601Z,95744.00
2024-05-09T00:02:10.636Z,95745.00
2024-05-09T00:03:11.785Z,95743.00
2024-05-09T00:04:10.657Z,95742.00
2024-05-09T00:05:10.786Z,95741.00
2024-05-09T00:06:10.713Z,95740.00
2024-05-09T00:07:10.592Z,95741.00
2024-05-09T00:08:10.817Z,95739.00
2024-05-09T00:09:10.583Z,95739.00
2024-05-09T00:10:18.250Z,95740.00
2024-05-09T00:11:11.713Z,95740.00
2024-05-09T00:12:10.771Z,95741.00
2024-05-09T00:13:11.235Z,95741.00
2024-05-09T00:14:10.643Z,95740.00
2024-05-09T00:15:10.654Z,95741.00
2024-05-09T00:16:10.663Z,95741.00
2024-05-09T00:17:10.723Z,95743.00
2024-05-09T00:18:10.774Z,95740.00
2024-05-09T00:19:10.880Z,95742.00
2024-05-09T00:20:17.616Z,95742.00
2024-05-09T00:21:11.876Z,95742.00
2024-05-09T00:22:10.925Z,95741.00
2024-05-09T00:23:11.954Z,95741.00
2024-05-09T00:24:10.973Z,95743.00
2024-05-09T00:25:10.834Z,95743.00
2024-05-09T00:26:10.832Z,95744.00
2024-05-09T00:27:13.234Z,95742.00
2024-05-09T00:28:11.059Z,95741.00
2024-05-09T00:29:11.139Z,95740.00
2024-05-09T00:30:17.474Z,95740.00
2024-05-09T00:31:12.153Z,95739.00
2024-05-09T00:32:11.313Z,95738.00
2024-05-09T00:33:11.898Z,95736.00
2024-05-09T00:34:11.289Z,95735.00
2024-05-09T00:35:11.213Z,95733.00
2024-05-09T00:36:11.168Z,95734.00
2024-05-09T00:37:11.170Z,95731.00
2024-05-09T00:38:11.169Z,95730.00
2024-05-09T00:39:11.146Z,95730.00
2024-05-09T00:40:18.320Z,95729.00
2024-05-09T00:41:12.299Z,95729.00
2024-05-09T00:42:11.298Z,95728.00
2024-05-09T00:43:12.072Z,95726.00
2024-05-09T00:44:11.409Z,95727.00
2024-05-09T00:45:11.316Z,95725.00
2024-05-09T00:46:11.304Z,95725.00
2024-05-09T00:47:11.437Z,95725.00
2024-05-09T00:48:13.412Z,95724.00
2024-05-09T00:49:11.368Z,95722.00
2024-05-09T00:50:16.004Z,95721.00
2024-05-09T00:51:12.443Z,95722.00
2024-05-09T00:52:11.324Z,95719.00
2024-05-09T00:53:11.676Z,95716.00
2024-05-09T00:54:11.327Z,95713.00
2024-05-09T00:55:11.361Z,95712.00
2024-05-09T00:56:11.379Z,95710.00
2024-05-09T00:57:11.358Z,95707.00
2024-05-09T00:58:11.367Z,95704.00
2024-05-09T00:59:11.440Z,95706.00
2024-05-09T01:00:22.106Z,95704.00
2024-05-09T01:01:12.424Z,95701.00
2024-05-09T01:02:11.534Z,95699.00
2024-05-09T01:03:13.358Z,95699.00
2024-05-09T01:04:11.612Z,95698.00
2024-05-09T01:05:11.514Z,95697.00
2024-05-09T01:06:11.423Z,95693.00
2024-05-09T01:07:11.423Z,95695.00
2024-05-09T01:08:11.800Z,95694.00
2024-05-09T01:09:11.444Z,95693.00
2024-05-09T01:10:17.134Z,95693.00
2024-05-09T01:11:12.569Z,95692.00
2024-05-09T01:12:11.708Z,95691.00
2024-05-09T01:13:11.430Z,95692.00
2024-05-09T01:14:11.517Z,95693.00
2024-05-09T01:15:11.478Z,95691.00
2024-05-09T01:16:11.460Z,95691.00
2024-05-09T01:17:11.593Z,95691.00
2024-05-09T01:18:12.639Z,95692.00
2024-05-09T01:19:11.629Z,95691.00
2024-05-09T01:20:19.804Z,95691.00
2024-05-09T01:21:12.564Z,95694.00
2024-05-09T01:22:11.461Z,95695.00
2024-05-09T01:23:11.973Z,95694.00
2024-05-09T01:24:11.466Z,95694.00
2024-05-09T01:25:11.521Z,95694.00
2024-05-09T01:26:11.570Z,95694.00
2024-05-09T01:27:11.536Z,95696.00
2024-05-09T01:28:11.539Z,95698.00
2024-05-09T01:29:11.556Z,95698.00
2024-05-09T01:30:17.201Z,95699.00
2024-05-09T01:31:12.655Z,95697.00
2024-05-09T01:32:11.667Z,95698.00
2024-05-09T01:33:24.415Z,95697.00
2024-05-09T01:34:24.214Z,95698.00
2024-05-09T01:35:24.326Z,95698.00
2024-05-09T01:36:24.212Z,95697.00
2024-05-09T01:37:24.215Z,95699.00
2024-05-09T01:38:24.263Z,95697.00
2024-05-09T01:39:24.224Z,95698.00
2024-05-09T01:41:24.284Z,95695.00
2024-05-09T01:42:24.231Z,95697.00
2024-05-09T01:43:24.225Z,95696.00
2024-05-09T01:44:24.323Z,95695.00
2024-05-09T01:45:24.224Z,95693.00
2024-05-09T01:46:24.217Z,95692.00
2024-05-09T01:47:24.344Z,95693.00
2024-05-09T01:48:24.326Z,95693.00
2024-05-09T01:49:24.367Z,95694.00
2024-05-09T01:50:35.775Z,95694.00
2024-05-09T01:51:25.244Z,95695.00
2024-05-09T01:52:24.303Z,95693.00
2024-05-09T01:53:24.286Z,95695.00
2024-05-09T01:54:24.268Z,95696.00
2024-05-09T01:55:24.280Z,95695.00
2024-05-09T01:56:24.364Z,95697.00
2024-05-09T01:57:24.294Z,95694.00
2024-05-09T01:58:24.278Z,95696.00
2024-05-09T01:59:24.333Z,95696.00
2024-05-09T02:00:33.889Z,95695.00
2024-05-09T02:01:25.372Z,95695.00
2024-05-09T02:02:24.429Z,95693.00
2024-05-09T02:03:24.462Z,95694.00
2024-05-09T02:04:24.502Z,95693.00
2024-05-09T02:05:24.496Z,95694.00
2024-05-09T02:06:24.382Z,95695.00
2024-05-09T02:07:24.389Z,95694.00
2024-05-09T02:08:24.432Z,95694.00
2024-05-09T02:09:24.464Z,95695.00
2024-05-09T02:10:31.738Z,95695.00
2024-05-09T02:11:25.622Z,95692.00
2024-05-09T02:12:24.636Z,95690.00
2024-05-09T02:13:24.549Z,95692.00
2024-05-09T02:14:24.655Z,95692.00
2024-05-09T02:15:24.574Z,95689.00
2024-05-09T02:16:24.546Z,95691.00
2024-05-09T02:17:24.720Z,95691.00
2024-05-09T02:18:24.609Z,95690.00
2024-05-09T02:19:24.716Z,95693.00
2024-05-09T02:20:33.455Z,95689.00
2024-05-09T02:21:25.610Z,95693.00
2024-05-09T02:22:24.603Z,95694.00
2024-05-09T02:23:24.667Z,95692.00
2024-05-09T02:24:24.640Z,95691.00
2024-05-09T02:25:24.615Z,95690.00
2024-05-09T02:26:24.644Z,95689.00
2024-05-09T02:27:24.631Z,95690.00
2024-05-09T02:28:24.762Z,95690.00
2024-05-09T02:29:25.053Z,95689.00
2024-05-09T02:30:30.917Z,95689.00
2024-05-09T02:31:26.088Z,95687.00
2024-05-09T02:32:25.303Z,95686.00
2024-05-09T02:33:25.348Z,95685.00
2024-05-09T02:34:25.173Z,95686.00
2024-05-09T02:35:25.182Z,95685.00
2024-05-09T02:36:25.127Z,95683.00
2024-05-09T02:37:25.126Z,95684.00
2024-05-09T02:38:25.179Z,95684.00
2024-05-09T02:39:25.141Z,95685.00
2024-05-09T02:41:25.410Z,95683.00
2024-05-09T02:42:25.582Z,95682.00
2024-05-09T02:43:25.734Z,95683.00
2024-05-09T02:44:25.950Z,95683.00
2024-05-09T02:45:26.066Z,95683.00
2024-05-09T02:46:26.237Z,95681.00
2024-05-09T02:47:26.483Z,95681.00
2024-05-09T02:48:26.522Z,95682.00
2024-05-09T02:49:26.640Z,95681.00
2024-05-09T02:50:34.351Z,95682.00
2024-05-09T02:51:27.647Z,95681.00
2024-05-09T02:52:26.661Z,95683.00
2024-05-09T02:53:27.508Z,95681.00
2024-05-09T02:54:26.641Z,95682.00
2024-05-09T02:55:26.708Z,95682.00
2024-05-09T02:56:26.701Z,95683.00
2024-05-09T02:57:26.695Z,95684.00
2024-05-09T02:58:26.720Z,95683.00
2024-05-09T02:59:26.762Z,95683.00
2024-05-09T03:00:35.157Z,95685.00
2024-05-09T03:01:27.898Z,95682.00
2024-05-09T03:02:26.917Z,95683.00
2024-05-09T03:03:27.262Z,95680.00
2024-05-09T03:04:26.889Z,95683.00
2024-05-09T03:05:26.974Z,95680.00
2024-05-09T03:06:26.910Z,95681.00
2024-05-09T03:07:26.902Z,95679.00
2024-05-09T03:08:26.986Z,95679.00
2024-05-09T03:09:26.889Z,95679.00
2024-05-09T03:11:27.223Z,95678.00
2024-05-09T03:12:27.285Z,95679.00
2024-05-09T03:13:27.343Z,95679.00
2024-05-09T03:14:27.355Z,95678.00
2024-05-09T03:15:27.326Z,95679.00
2024-05-09T03:16:27.393Z,95681.00
2024-05-09T03:17:27.599Z,95680.00
2024-05-09T03:18:27.659Z,95682.00
2024-05-09T03:19:27.650Z,95681.00
2024-05-09T03:20:32.982Z,95680.00
2024-05-09T03:21:28.617Z,95683.00
2024-05-09T03:22:27.601Z,95682.00
2024-05-09T03:23:27.639Z,95683.00
2024-05-09T03:24:27.603Z,95684.00
2024-05-09T03:25:27.615Z,95686.00
2024-05-09T03:26:27.708Z,95686.00
2024-05-09T03:27:27.624Z,95685.00
2024-05-09T03:28:27.629Z,95685.00
2024-05-09T03:29:27.703Z,95687.00
2024-05-09T03:30:36.052Z,95686.00
2024-05-09T03:31:28.683Z,95686.00
2024-05-09T03:32:27.950Z,95686.00
2024-05-09T03:33:27.969Z,95684.00
2024-05-09T03:34:27.747Z,95685.00
2024-05-09T03:35:27.886Z,95683.00
2024-05-09T03:36:27.718Z,95686.00
2024-05-09T03:37:27.748Z,95686.00
2024-05-09T03:38:27.776Z,95685.00
2024-05-09T03:39:27.739Z,95684.00
2024-05-09T03:40:30.989Z,95685.00
2024-05-09T03:41:27.799Z,95686.00
2024-05-09T03:42:27.761Z,95686.00
2024-05-09T03:43:27.731Z,95688.00
2024-05-09T03:44:27.882Z,95688.00
2024-05-09T03:45:27.709Z,95687.00
2024-05-09T03:46:27.746Z,95686.00
2024-05-09T03:47:28.044Z,95685.00
2024-05-09T03:48:27.855Z,95683.00
2024-05-09T03:49:27.810Z,95684.00
2024-05-09T03:50:33.709Z,95684.00
2024-05-09T03:51:28.734Z,95686.00
2024-05-09T03:52:27.795Z,95688.00
2024-05-09T03:53:27.800Z,95691.00
2024-05-09T03:54:27.753Z,95692.00
2024-05-09T03:55:27.757Z,95694.00
2024-05-09T03:56:27.863Z,95696.00
2024-05-09T03:57:27.783Z,95696.00
2024-05-09T03:58:27.763Z,95695.00
2024-05-09T03:59:27.915Z,95699.00
2024-05-09T04:00:35.261Z,95700.00
2024-05-09T04:01:28.967Z,95702.00
2024-05-09T04:02:28.110Z,95701.00
2024-05-09T04:03:28.076Z,95702.00
2024-05-09T04:04:27.949Z,95704.00
2024-05-09T04:05:27.990Z,95704.00
2024-05-09T04:06:27.897Z,95705.00
2024-05-09T04:07:27.923Z,95707.00
2024-05-09T04:08:27.902Z,95708.00
2024-05-09T04:09:28.055Z,95708.00
2024-05-09T04:10:33.214Z,95710.00
2024-05-09T04:11:29.273Z,95707.00
2024-05-09T04:12:28.271Z,95709.00
2024-05-09T04:13:28.212Z,95709.00
2024-05-09T04:14:28.308Z,95709.00
2024-05-09T04:15:28.273Z,95710.00
2024-05-09T04:16:28.259Z,95707.00
2024-05-09T04:17:28.461Z,95711.00
2024-05-09T04:18:28.347Z,95710.00
2024-05-09T04:19:28.388Z,95708.00
2024-05-09T04:20:36.164Z,95710.00
2024-05-09T04:21:29.275Z,95709.00
2024-05-09T04:22:28.266Z,95710.00
2024-05-09T04:23:28.336Z,95708.00
2024-05-09T04:24:28.310Z,95711.00
2024-05-09T04:25:28.280Z,95709.00
2024-05-09T04:26:28.348Z,95708.00
2024-05-09T04:27:28.334Z,95712.00
2024-05-09T04:28:28.316Z,95713.00
2024-05-09T04:29:28.615Z,95714.00
2024-05-09T04:30:39.311Z,95715.00
2024-05-09T04:31:48.026Z,95715.00
2024-05-09T04:32:48.006Z,95716.00
2024-05-09T04:33:48.063Z,95714.00
2024-05-09T04:34:47.969Z,95717.00
2024-05-09T04:35:47.944Z,95717.00
2024-05-09T04:36:47.946Z,95716.00
2024-05-09T04:37:47.945Z,95716.00
2024-05-09T04:38:47.941Z,95714.00
2024-05-09T04:39:47.929Z,95715.00
2024-05-09T04:40:47.990Z,95716.00
2024-05-09T04:41:47.923Z,95715.00
2024-05-09T04:42:47.926Z,95715.00
2024-05-09T04:43:47.937Z,95714.00
2024-05-09T04:44:47.906Z,95716.00
2024-05-09T04:45:47.942Z,95716.00
2024-05-09T04:46:47.970Z,95715.00
2024-05-09T04:47:48.175Z,95716.00
2024-05-09T04:48:48.027Z,95717.00
2024-05-09T04:49:47.948Z,95719.00
2024-05-09T04:50:48.002Z,95719.00
2024-05-09T04:51:47.954Z,95721.00
2024-05-09T04:52:48.021Z,95722.00
2024-05-09T04:53:47.983Z,95723.00
2024-05-09T04:54:47.984Z,95726.00
2024-05-09T04:55:48.018Z,95724.00
2024-05-09T04:56:47.972Z,95725.00
2024-05-09T04:57:47.989Z,95727.00
2024-05-09T04:58:48.040Z,95728.00
2024-05-09T04:59:47.977Z,95727.00
2024-05-09T05:00:48.019Z,95727.00
2024-05-09T05:01:48.003Z,95729.00
2024-05-09T05:02:48.057Z,95729.00
2024-05-09T05:03:48.132Z,95729.00
2024-05-09T05:04:48.038Z,95730.00
2024-05-09T05:05:48.078Z,95730.00
2024-05-09T05:06:47.980Z,95732.00
2024-05-09T05:07:48.019Z,95729.00
2024-05-09T05:08:48.004Z,95728.00
2024-05-09T05:09:47.994Z,95728.00
2024-05-09T05:10:49.005Z,95727.00
2024-05-09T05:11:48.196Z,95726.00
2024-05-09T05:12:48.123Z,95728.00
2024-05-09T05:13:48.175Z,95727.00
2024-05-09T05:14:48.185Z,95727.00
2024-05-09T05:15:48.201Z,95727.00
2024-05-09T05:16:48.264Z,95730.00
2024-05-09T05:17:48.621Z,95730.00
2024-05-09T05:18:48.419Z,95732.00
2024-05-09T05:19:48.628Z,95733.00
2024-05-09T05:20:48.685Z,95734.00
2024-05-09T05:21:48.587Z,95732.00
2024-05-09T05:22:48.677Z,95732.00
2024-05-09T05:23:48.740Z,95734.00
2024-05-09T05:24:48.784Z,95731.00
2024-05-09T05:25:49.057Z,95732.00
2024-05-09T05:26:49.047Z,95731.00
2024-05-09T05:27:49.057Z,95733.00
2024-05-09T05:28:49.209Z,95735.00
2024-05-09T05:29:49.272Z,95734.00
2024-05-09T05:30:49.415Z,95737.00
2024-05-09T05:31:49.440Z,95734.00
2024-05-09T05:32:49.631Z,95736.00
2024-05-09T05:33:49.623Z,95737.00
2024-05-09T05:34:49.662Z,95740.00
2024-05-09T05:35:49.702Z,95741.00
2024-05-09T05:36:49.811Z,95741.00
2024-05-09T05:37:49.927Z,95742.00
2024-05-09T05:38:49.997Z,95743.00
2024-05-09T05:39:50.022Z,95741.00
2024-05-09T05:40:50.119Z,95745.00
2024-05-09T05:41:50.180Z,95743.00
2024-05-09T05:42:50.273Z,95741.00
2024-05-09T05:43:50.427Z,95744.00
2024-05-09T05:44:50.427Z,95744.00
2024-05-09T05:45:50.523Z,95747.00
2024-05-09T05:46:50.620Z,95744.00
2024-05-09T05:47:50.848Z,95744.00
2024-05-09T05:48:50.819Z,95745.00
2024-05-09T05:49:50.830Z,95748.00
2024-05-09T05:50:51.031Z,95744.00
2024-05-09T05:51:50.964Z,95744.00
2024-05-09T05:52:51.062Z,95744.00
2024-05-09T05:53:51.239Z,95742.00
2024-05-09T05:54:51.214Z,95742.00
2024-05-09T05:55:51.322Z,95744.00
2024-05-09T05:56:51.396Z,95743.00
2024-05-09T05:57:51.443Z,95741.00
2024-05-09T05:58:51.556Z,95743.00
2024-05-09T05:59:51.583Z,95741.00
2024-05-09T06:00:51.764Z,95742.00
2024-05-09T06:01:51.867Z,95739.00
2024-05-09T06:02:52.093Z,95738.00
2024-05-09T06:03:52.066Z,95738.00
2024-05-09T06:04:52.253Z,95737.00
2024-05-09T06:05:52.264Z,95736.00
2024-05-09T06:06:52.290Z,95737.00
2024-05-09T06:07:52.398Z,95737.00
2024-05-09T06:08:52.585Z,95737.00
2024-05-09T06:09:52.500Z,95736.00
2024-05-09T06:10:52.677Z,95735.00
2024-05-09T06:11:52.742Z,95735.00
2024-05-09T06:12:52.738Z,95734.00
2024-05-09T06:13:52.876Z,95733.00
2024-05-09T06:14:52.878Z,95734.00
2024-05-09T06:15:52.968Z,95733.00
2024-05-09T06:16:55.931Z,95734.00
2024-05-09T06:17:53.208Z,95735.00
2024-05-09T06:18:53.230Z,95733.00
2024-05-09T06:19:53.342Z,95734.00
2024-05-09T06:20:53.083Z,95732.00
2024-05-09T06:21:53.032Z,95733.00
2024-05-09T06:22:53.071Z,95730.00
2024-05-09T06:23:53.056Z,95730.00
2024-05-09T06:24:53.022Z,95730.00
2024-05-09T06:25:53.112Z,95730.00
2024-05-09T06:26:53.043Z,95730.00
2024-05-09T06:27:53.111Z,95729.00
2024-05-09T06:28:53.099Z,95732.00
2024-05-09T06:29:53.080Z,95730.00
2024-05-09T06:30:53.086Z,95731.00
2024-05-09T06:31:53.151Z,95729.00
2024-05-09T06:32:53.257Z,95729.00
2024-05-09T06:33:53.297Z,95730.00
2024-05-09T06:34:53.124Z,95731.00
2024-05-09T06:35:53.119Z,95726.00
2024-05-09T06:36:53.100Z,95728.00
2024-05-09T06:37:53.116Z,95729.00
2024-05-09T06:38:53.142Z,95729.00
2024-05-09T06:39:53.151Z,95726.00
2024-05-09T06:40:53.207Z,95725.00
2024-05-09T06:41:53.238Z,95724.00
2024-05-09T06:42:53.249Z,95726.00
2024-05-09T06:43:53.362Z,95724.00
2024-05-09T06:44:53.332Z,95723.00
2024-05-09T06:45:53.409Z,95722.00
2024-05-09T06:46:55.683Z,95723.00
2024-05-09T06:47:53.713Z,95725.00
2024-05-09T06:48:54.070Z,95727.00
2024-05-09T06:49:53.593Z,95727.00
2024-05-09T06:50:53.497Z,95726.00
2024-05-09T06:51:53.465Z,95729.00
2024-05-09T06:52:53.534Z,95731.00
2024-05-09T06:53:53.491Z,95730.00
2024-05-09T06:54:53.495Z,95731.00
2024-05-09T06:55:53.553Z,95731.00
2024-05-09T06:56:53.474Z,95730.00
2024-05-09T06:57:53.501Z,95730.00
2024-05-09T06:58:53.543Z,95728.00
2024-05-09T06:59:53.522Z,95728.00
2024-05-09T07:00:53.544Z,95727.00
2024-05-09T07:01:53.526Z,95725.00
2024-05-09T07:02:53.605Z,95725.00
2024-05-09T07:03:53.611Z,95725.00
2024-05-09T07:04:53.678Z,95726.00
2024-05-09T07:05:53.540Z,95728.00
2024-05-09T07:06:53.530Z,95729.00
2024-05-09T07:07:53.583Z,95730.00
2024-05-09T07:08:53.518Z,95730.00
2024-05-09T07:09:53.503Z,95732.00
2024-05-09T07:10:53.629Z,95734.00
2024-05-09T07:11:53.671Z,95731.00
2024-05-09T07:12:53.515Z,95731.00
2024-05-09T07:13:53.584Z,95731.00
2024-05-09T07:14:53.525Z,95729.00
2024-05-09T07:15:53.535Z,95727.00
2024-05-09T07:16:53.839Z,95728.00
2024-05-09T07:17:54.068Z,95728.00
2024-05-09T07:18:54.127Z,95727.00
2024-05-09T07:19:54.223Z,95726.00
2024-05-09T07:20:54.316Z,95724.00
2024-05-09T07:21:54.406Z,95721.00
2024-05-09T07:22:54.497Z,95721.00
2024-05-09T07:23:54.590Z,95718.00
2024-05-09T07:24:54.615Z,95718.00
2024-05-09T07:25:54.777Z,95715.00
2024-05-09T07:26:54.876Z,95713.00
2024-05-09T07:27:55.063Z,95712.00
2024-05-09T07:28:55.228Z,95713.00
2024-05-09T07:29:55.370Z,95714.00
2024-05-09T07:30:55.539Z,95713.00
2024-05-09T07:31:55.743Z,95713.00
2024-05-09T07:32:55.978Z,95711.00
2024-05-09T07:33:56.011Z,95710.00
2024-05-09T07:34:56.173Z,95710.00
2024-05-09T07:35:56.303Z,95713.00
2024-05-09T07:36:56.468Z,95714.00
2024-05-09T07:37:56.680Z,95714.00
2024-05-09T07:38:56.763Z,95716.00
2024-05-09T07:39:56.835Z,95716.00
2024-05-09T07:40:56.926Z,95715.00
2024-05-09T07:41:57.020Z,95716.00
2024-05-09T07:42:57.142Z,95713.00
2024-05-09T07:43:57.229Z,95713.00
2024-05-09T07:45:11.206Z,95710.00
2024-05-09T07:46:07.089Z,95710.00
2024-05-09T07:49:44.263Z,95707.00
2024-05-09T07:51:47.873Z,95704.00
2024-05-09T07:52:39.169Z,95706.00
2024-05-09T07:53:21.988Z,95705.00
2024-05-09T07:54:00.503Z,95702.00
2024-05-09T07:54:57.478Z,95704.00
2024-05-09T07:55:57.570Z,95703.00
2024-05-09T07:56:57.651Z,95704.00
2024-05-09T07:57:57.352Z,95702.00
2024-05-09T07:58:57.356Z,95700.00
2024-05-09T07:59:57.367Z,95702.00
2024-05-09T08:00:57.461Z,95702.00
2024-05-09T08:01:57.397Z,95700.00
2024-05-09T08:02:57.408Z,95702.00
2024-05-09T08:03:57.545Z,95701.00
2024-05-09T08:04:57.512Z,95701.00
2024-05-09T08:05:57.346Z,95701.00
2024-05-09T08:06:57.346Z,95703.00
2024-05-09T08:07:57.346Z,95701.00
2024-05-09T08:08:59.247Z,95702.00
2024-05-09T08:09:58.503Z,95699.00
2024-05-09T08:10:57.366Z,95701.00
2024-05-09T08:11:57.402Z,95700.00
2024-05-09T08:12:57.451Z,95698.00
2024-05-09T08:13:57.356Z,95696.00
2024-05-09T08:14:57.377Z,95696.00
2024-05-09T08:15:57.414Z,95695.00
2024-05-09T08:16:57.421Z,95695.00
2024-05-09T08:17:57.469Z,95696.00
2024-05-09T08:18:57.516Z,95695.00
2024-05-09T08:19:57.475Z,95695.00
2024-05-09T08:20:57.651Z,95696.00
2024-05-09T08:21:57.749Z,95696.00
2024-05-09T08:22:57.862Z,95692.00
2024-05-09T08:23:57.951Z,95694.00
2024-05-09T08:24:58.084Z,95693.00
2024-05-09T08:25:58.166Z,95694.00
2024-05-09T08:26:58.277Z,95692.00
2024-05-09T08:27:58.417Z,95692.00
2024-05-09T08:28:58.499Z,95689.00
2024-05-09T08:29:58.640Z,95689.00
2024-05-09T08:30:59.036Z,95687.00
2024-05-09T08:31:58.825Z,95688.00
2024-05-09T08:32:58.821Z,95686.00
2024-05-09T08:33:58.944Z,95684.00
2024-05-09T08:34:58.872Z,95683.00
2024-05-09T08:35:58.863Z,95687.00
2024-05-09T08:37:03.896Z,95689.00
2024-05-09T08:38:00.231Z,95687.00
2024-05-09T08:38:58.919Z,95687.00
2024-05-09T08:39:58.945Z,95689.00
2024-05-09T08:40:58.971Z,95688.00
2024-05-09T08:41:58.914Z,95688.00
2024-05-09T08:42:58.953Z,95689.00
2024-05-09T08:43:58.969Z,95687.00
2024-05-09T08:44:58.914Z,95685.00
2024-05-09T08:45:58.955Z,95686.00
2024-05-09T08:46:58.939Z,95685.00
2024-05-09T08:47:59.152Z,95683.00
2024-05-09T08:48:59.076Z,95683.00
2024-05-09T08:49:59.003Z,95684.00
2024-05-09T08:50:58.952Z,95682.00
2024-05-09T08:51:58.990Z,95679.00
2024-05-09T08:52:59.065Z,95679.00
2024-05-09T08:53:59.175Z,95679.00
2024-05-09T08:54:59.348Z,95680.00
2024-05-09T08:55:59.378Z,95677.00
2024-05-09T08:56:59.471Z,95678.00
2024-05-09T08:57:59.572Z,95679.00
2024-05-09T08:58:59.620Z,95676.00
2024-05-09T08:59:59.723Z,95676.00
2024-05-09T09:00:59.959Z,95678.00
2024-05-09T09:01:59.972Z,95678.00
2024-05-09T09:03:00.050Z,95678.00
2024-05-09T09:04:00.236Z,95675.00
2024-05-09T09:05:00.370Z,95672.00
2024-05-09T09:06:00.384Z,95672.00
2024-05-09T09:07:02.369Z,95670.00
2024-05-09T09:08:00.464Z,95671.00
2024-05-09T09:09:00.445Z,95670.00
2024-05-09T09:10:00.512Z,95669.00
2024-05-09T09:11:00.498Z,95667.00
2024-05-09T09:12:00.541Z,95666.00
2024-05-09T09:13:00.642Z,95667.00
2024-05-09T09:14:00.491Z,95666.00
2024-05-09T09:15:00.545Z,95667.00
2024-05-09T09:16:00.732Z,95663.00
2024-05-09T09:17:00.509Z,95664.00
2024-05-09T09:18:01.031Z,95663.00
2024-05-09T09:19:00.594Z,95659.00
2024-05-09T09:20:00.737Z,95658.00
2024-05-09T09:21:00.506Z,95658.00
2024-05-09T09:22:00.600Z,95660.00
2024-05-09T09:23:00.577Z,95660.00
2024-05-09T09:24:00.557Z,95658.00
2024-05-09T09:25:00.574Z,95658.00
2024-05-09T09:26:00.595Z,95655.00
2024-05-09T09:27:00.556Z,95655.00
2024-05-09T09:28:00.674Z,95653.00
2024-05-09T09:29:00.564Z,95652.00
2024-05-09T09:30:00.600Z,95652.00
2024-05-09T09:31:00.690Z,95651.00
2024-05-09T09:32:00.564Z,95651.00
2024-05-09T09:33:00.699Z,95653.00
2024-05-09T09:34:00.679Z,95654.00
2024-05-09T09:35:00.657Z,95652.00
2024-05-09T09:36:00.547Z,95650.00
2024-05-09T09:37:00.582Z,95648.00
2024-05-09T09:38:00.579Z,95645.00
2024-05-09T09:39:00.610Z,95647.00
2024-05-09T09:40:00.651Z,95648.00
2024-05-09T09:41:00.693Z,95643.00
2024-05-09T09:42:00.556Z,95644.00
2024-05-09T09:43:00.656Z,95641.00
2024-05-09T09:44:00.582Z,95638.00
2024-05-09T09:45:05.023Z,95637.00
2024-05-09T09:46:01.647Z,95637.00
2024-05-09T09:47:00.630Z,95633.00
2024-05-09T09:48:00.649Z,95631.00
2024-05-09T09:49:00.706Z,95629.00
2024-05-09T09:50:00.619Z,95628.00
2024-05-09T09:51:00.626Z,95629.00
2024-05-09T09:52:00.660Z,95630.00
2024-05-09T09:53:00.646Z,95629.00
2024-05-09T09:54:00.640Z,95623.00
2024-05-09T09:55:00.664Z,95625.00
2024-05-09T09:56:00.624Z,95627.00
2024-05-09T09:57:00.615Z,95624.00
2024-05-09T09:58:00.710Z,95626.00
2024-05-09T09:59:00.642Z,95627.00
2024-05-09T10:00:00.680Z,95624.00
2024-05-09T10:01:00.848Z,95624.00
2024-05-09T10:02:00.950Z,95624.00
2024-05-09T10:03:01.422Z,95621.00
2024-05-09T10:04:01.066Z,95613.00
2024-05-09T10:05:01.303Z,95618.00
2024-05-09T10:06:01.217Z,95611.00
2024-05-09T10:07:01.376Z,95607.00
2024-05-09T10:08:01.392Z,95608.00
2024-05-09T10:09:01.484Z,95607.00
2024-05-09T10:10:01.663Z,95604.00
2024-05-09T10:11:01.803Z,95603.00
2024-05-09T10:12:01.873Z,95602.00
2024-05-09T10:13:01.998Z,95599.00
2024-05-09T10:14:02.048Z,95598.00
2024-05-09T10:15:02.158Z,95592.00
2024-05-09T10:16:02.286Z,95593.00
2024-05-09T10:17:02.421Z,95593.00
2024-05-09T10:18:02.830Z,95589.00
2024-05-09T10:19:02.796Z,95588.00
2024-05-09T10:20:04.019Z,95584.00
2024-05-09T10:21:02.697Z,95582.00
2024-05-09T10:22:02.734Z,95580.00
2024-05-09T10:23:02.690Z,95579.00
2024-05-09T10:24:02.737Z,95582.00
2024-05-09T10:25:04.816Z,95578.00
2024-05-09T10:26:02.712Z,95582.00
2024-05-09T10:27:02.707Z,95582.00
2024-05-09T10:28:02.815Z,95577.00
2024-05-09T10:29:02.745Z,95578.00
2024-05-09T10:30:06.731Z,95577.00
2024-05-09T10:31:03.808Z,95576.00
2024-05-09T10:32:02.769Z,95574.00
2024-05-09T10:33:03.002Z,95574.00
2024-05-09T10:34:03.375Z,95574.00
2024-05-09T10:35:03.053Z,95576.00
2024-05-09T10:36:02.822Z,95575.00
2024-05-09T10:37:04.931Z,95575.00
2024-05-09T10:38:02.791Z,95572.00
2024-05-09T10:39:02.834Z,95571.00
2024-05-09T10:40:04.279Z,95568.00
2024-05-09T10:41:02.796Z,95570.00
2024-05-09T10:42:02.843Z,95568.00
2024-05-09T10:43:05.791Z,95567.00
2024-05-09T10:44:02.804Z,95562.00
2024-05-09T10:45:02.836Z,95559.00
2024-05-09T10:46:02.995Z,95560.00
2024-05-09T10:47:02.870Z,95560.00
2024-05-09T10:48:03.079Z,95560.00
2024-05-09T10:49:06.326Z,95558.00
2024-05-09T10:50:07.784Z,95557.00
2024-05-09T10:51:03.853Z,95557.00
2024-05-09T10:52:02.974Z,95556.00
2024-05-09T10:53:02.841Z,95554.00
2024-05-09T10:54:02.837Z,95553.00
2024-05-09T10:55:05.496Z,95551.00
2024-05-09T10:56:02.830Z,95553.00
2024-05-09T10:57:02.836Z,95549.00
2024-05-09T10:58:02.839Z,95546.00
2024-05-09T10:59:02.822Z,95545.00
2024-05-09T11:00:03.820Z,95545.00
2024-05-09T11:01:06.268Z,95542.00
2024-05-09T11:02:03.145Z,95543.00
2024-05-09T11:03:03.099Z,95541.00
2024-05-09T11:04:03.282Z,95541.00
2024-05-09T11:05:03.043Z,95539.00
2024-05-09T11:06:02.930Z,95535.00
2024-05-09T11:07:05.099Z,95532.00
2024-05-09T11:08:03.062Z,95530.00
2024-05-09T11:09:03.072Z,95531.00
2024-05-09T11:10:03.447Z,95530.00
2024-05-09T11:11:03.314Z,95526.00
2024-05-09T11:12:03.274Z,95527.00
2024-05-09T11:13:03.382Z,95525.00
2024-05-09T11:14:03.342Z,95523.00
2024-05-09T11:15:03.372Z,95522.00
2024-05-09T11:16:03.455Z,95523.00
2024-05-09T11:17:03.522Z,95523.00
2024-05-09T11:18:03.660Z,95523.00
2024-05-09T11:19:03.802Z,95523.00
2024-05-09T11:20:10.455Z,95526.00
2024-05-09T11:21:04.640Z,95521.00
2024-05-09T11:22:03.685Z,95518.00
2024-05-09T11:23:03.657Z,95519.00
2024-05-09T11:24:04.472Z,95516.00
2024-05-09T11:25:03.726Z,95516.00
2024-05-09T11:26:03.712Z,95516.00
2024-05-09T11:27:03.669Z,95512.00
2024-05-09T11:28:03.814Z,95511.00
2024-05-09T11:29:03.663Z,95512.00
2024-05-09T11:30:04.479Z,95510.00
2024-05-09T11:31:03.874Z,95510.00
2024-05-09T11:32:03.886Z,95512.00
2024-05-09T11:33:03.971Z,95512.00
2024-05-09T11:34:03.978Z,95507.00
2024-05-09T11:35:04.032Z,95507.00
2024-05-09T11:36:04.233Z,95505.00
2024-05-09T11:37:04.200Z,95504.00
2024-05-09T11:38:04.214Z,95502.00
2024-05-09T11:39:04.219Z,95501.00
2024-05-09T11:40:06.933Z,95500.00
2024-05-09T11:41:06.171Z,95500.00
2024-05-09T11:42:04.286Z,95497.00
2024-05-09T11:43:04.320Z,95497.00
2024-05-09T11:44:04.290Z,95496.00
2024-05-09T11:45:04.282Z,95495.00
2024-05-09T11:46:04.592Z,95490.00
2024-05-09T11:47:04.310Z,95487.00
2024-05-09T11:48:04.437Z,95483.00
2024-05-09T11:49:04.493Z,95487.00
2024-05-09T11:50:07.851Z,95484.00
2024-05-09T11:51:04.284Z,95484.00